5 day graph

You are here

Hive Data

Page: 1 of 16645  Records: 998690

Row Date Time Hive Temp Hive Humidity Outside Temp Outside Humidity Bottom Board Temp Outside Wall Temp Electronics Temp Light Levels inHG Fan Heat Cover Notes
Clear Sorted By: Electronics Temp ascending, Hive Humidity ascending, Row descending
View 722119 Nov 29 2015 7:10:28am 62.06 41 19.04 80 18.5 26.6 33.8 446 29.46 0 0 0 NA
View 720649 Nov 28 2015 6:34:41am 58.46 33 20.12 81 20.3 28.4 35.6 442 29.56 0 0 0 NA
View 720648 Nov 28 2015 6:33:41am 58.46 33 20.12 81 20.3 28.4 35.6 442 29.55 0 0 0 NA
View 722071 Nov 29 2015 6:22:18am 61.52 34 18.68 80 18.95 26.6 35.6 446 29.47 0 0 0 NA
View 722070 Nov 29 2015 6:21:18am 61.52 34 18.68 80 18.95 26.6 35.6 446 29.47 0 0 0 NA
View 720717 Nov 28 2015 7:42:54am 59.18 34 19.76 81 19.85 27.95 35.6 448 29.57 0 0 0 NA
View 720716 Nov 28 2015 7:41:54am 59.18 34 19.76 81 19.85 27.95 35.6 447 29.57 0 0 0 NA
View 720655 Nov 28 2015 6:40:42am 58.64 34 20.12 80 20.3 27.95 35.6 441 29.56 0 0 0 NA
View 720647 Nov 28 2015 6:32:41am 58.64 34 20.3 81 20.3 27.95 35.6 441 29.56 0 0 0 NA
View 720597 Nov 28 2015 5:42:31am 58.1 34 20.48 82 20.75 28.4 35.6 440 29.56 0 0 0 NA
View 720595 Nov 28 2015 5:40:30am 58.1 34 20.48 81 20.75 28.4 35.6 441 29.56 0 0 0 NA
View 720593 Nov 28 2015 5:38:30am 58.28 34 20.48 81 20.75 28.85 35.6 441 29.56 0 0 0 NA
View 722139 Nov 29 2015 7:30:31am 61.7 35 18.68 80 18.5 26.15 35.6 449 29.46 0 0 0 NA
View 722090 Nov 29 2015 6:41:22am 61.7 35 18.68 80 18.95 26.6 35.6 446 29.46 0 0 0 NA
View 720721 Nov 28 2015 7:46:55am 58.82 35 19.76 81 19.4 27.95 35.6 450 29.57 0 0 0 NA
View 720718 Nov 28 2015 7:43:55am 59 35 19.76 81 19.85 27.95 35.6 449 29.57 0 0 0 NA
View 720654 Nov 28 2015 6:39:42am 58.64 35 20.12 80 20.3 27.95 35.6 441 29.55 0 0 0 NA
View 720653 Nov 28 2015 6:38:42am 58.46 35 20.12 80 20.3 27.95 35.6 442 29.56 0 0 0 NA
View 720652 Nov 28 2015 6:37:42am 58.46 35 20.12 80 20.3 27.95 35.6 442 29.55 0 0 0 NA
View 720596 Nov 28 2015 5:41:31am 58.1 35 20.48 81 20.75 28.4 35.6 440 29.56 0 0 0 NA
View 722197 Nov 29 2015 8:28:43am 60.26 36 19.58 80 18.05 26.6 35.6 458 29.46 0 0 0 NA
View 722168 Nov 29 2015 7:59:37am 60.98 36 18.86 80 18.5 26.6 35.6 456 29.46 0 0 0 NA
View 722167 Nov 29 2015 7:58:37am 61.16 36 18.86 80 18.5 26.6 35.6 456 29.46 0 0 0 NA
View 722166 Nov 29 2015 7:57:37am 61.34 36 18.86 80 18.5 26.6 35.6 455 29.46 0 0 0 NA
View 722138 Nov 29 2015 7:29:31am 61.88 36 18.68 80 18.5 26.15 35.6 449 29.46 0 0 0 NA
View 722091 Nov 29 2015 6:42:22am 61.7 36 18.68 80 18.95 26.6 35.6 446 29.47 0 0 0 NA
View 722088 Nov 29 2015 6:39:21am 61.7 36 18.68 80 18.95 26.6 35.6 445 29.46 0 0 0 NA
View 720770 Nov 28 2015 8:36:05am 59.36 36 20.84 85 19.4 28.4 35.6 457 29.56 0 0 0 NA
View 720763 Nov 28 2015 8:29:04am 59.9 36 20.48 82 19.4 28.4 35.6 457 29.56 0 0 0 NA
View 720741 Nov 28 2015 8:06:59am 59.54 36 19.94 80 19.4 27.95 35.6 454 29.57 0 0 0 NA
View 720719 Nov 28 2015 7:44:55am 58.82 36 19.76 80 19.85 27.95 35.6 449 29.57 0 0 0 NA
View 720592 Nov 28 2015 5:37:30am 58.46 36 20.66 81 20.75 28.85 35.6 441 29.56 0 0 0 NA
View 720591 Nov 28 2015 5:36:30am 58.64 36 20.66 81 20.75 28.85 35.6 441 29.56 0 0 0 NA
View 722202 Nov 29 2015 8:33:44am 60.08 37 19.58 79 18.05 26.6 35.6 462 29.46 0 0 0 NA
View 722198 Nov 29 2015 8:29:43am 60.08 37 19.58 80 18.05 26.6 35.6 462 29.46 0 0 0 NA
View 722196 Nov 29 2015 8:27:42am 60.44 37 19.4 80 18.05 26.6 35.6 461 29.46 0 0 0 NA
View 722103 Nov 29 2015 6:54:24am 61.52 37 18.86 82 18.95 26.6 35.6 446 29.47 0 0 0 NA
View 722099 Nov 29 2015 6:50:24am 61.34 37 18.68 81 18.5 26.6 35.6 446 29.46 0 0 0 NA
View 722098 Nov 29 2015 6:49:23am 61.52 37 18.68 80 18.95 26.6 35.6 446 29.47 0 0 0 NA
View 722089 Nov 29 2015 6:40:22am 61.7 37 18.68 80 18.95 26.6 35.6 446 29.47 0 0 0 NA
View 720771 Nov 28 2015 8:37:05am 59.36 37 20.84 85 19.4 28.4 35.6 458 29.57 0 0 0 NA
View 720769 Nov 28 2015 8:35:05am 59.54 37 20.84 85 19.4 28.4 35.6 458 29.56 0 0 0 NA
View 720768 Nov 28 2015 8:34:04am 59.54 37 20.66 85 19.4 28.4 35.6 457 29.57 0 0 0 NA
View 720767 Nov 28 2015 8:33:04am 59.72 37 20.48 85 19.4 28.4 35.6 457 29.57 0 0 0 NA
View 720760 Nov 28 2015 8:26:03am 60.08 37 20.3 82 19.4 27.95 35.6 456 29.57 0 0 0 NA
View 720740 Nov 28 2015 8:05:59am 59.54 37 19.94 80 19.4 27.95 35.6 453 29.57 0 0 0 NA
View 720723 Nov 28 2015 7:48:56am 58.82 37 19.76 81 19.85 27.95 35.6 448 29.56 0 0 0 NA
View 720722 Nov 28 2015 7:47:55am 58.82 37 19.76 81 19.85 27.95 35.6 449 29.57 0 0 0 NA
View 720720 Nov 28 2015 7:45:55am 58.82 37 19.76 80 19.4 27.95 35.6 449 29.57 0 0 0 NA
View 720705 Nov 28 2015 7:30:52am 59.72 37 19.76 80 19.85 27.95 35.6 444 29.56 0 0 0 NA
View 720689 Nov 28 2015 7:14:49am 59.72 37 19.94 81 19.85 27.95 35.6 441 29.56 0 0 0 NA
View 720650 Nov 28 2015 6:35:41am 58.46 37 20.12 80 20.3 28.4 35.6 441 29.56 0 0 0 NA
View 720646 Nov 28 2015 6:31:40am 58.82 37 20.12 81 20.3 27.95 35.6 442 29.55 0 0 0 NA
View 720594 Nov 28 2015 5:39:30am 58.28 37 20.48 81 20.75 28.85 35.6 441 29.56 0 0 0 NA
View 722195 Nov 29 2015 8:26:42am 60.44 38 19.4 80 18.05 26.6 35.6 461 29.47 0 0 0 NA
View 722171 Nov 29 2015 8:02:38am 60.8 38 18.86 80 18.5 26.6 35.6 457 29.46 0 0 0 NA
View 722165 Nov 29 2015 7:56:36am 61.34 38 18.86 80 18.5 26.6 35.6 456 29.47 0 0 0 NA
View 722164 Nov 29 2015 7:55:36am 61.52 38 18.86 80 18.5 26.6 35.6 456 29.46 0 0 0 NA
View 722135 Nov 29 2015 7:26:31am 61.88 38 18.68 80 18.5 26.15 35.6 449 29.47 0 0 0 NA
View 722102 Nov 29 2015 6:53:24am 61.52 38 18.86 82 18.95 26.6 35.6 446 29.47 0 0 0 NA